Time;durP1;ratioP1;P1;durP2;ratioP2;P2;SDS_P1;SDS_P2;PMS_P1;PMS_P2;Temp;Humidity;BMP_temperature;BMP_pressure;BME280_temperature;BME280_humidity;BME280_pressure;Samples;Min_cycle;Max_cycle;Signal;HPM_P1;HPM_P2
2020/12/07 00:00:24;;;;;;;29.10;19.98;;;8.60;67.70;;;;;;2077092;28;20112;-73
2020/12/07 00:01:26;;;;;;;28.80;20.35;;;8.60;67.80;;;;;;2075400;28;20036;-75
2020/12/07 00:02:26;;;;;;;30.15;21.05;;;8.60;67.90;;;;;;2081797;28;20064;-75
2020/12/07 00:03:27;;;;;;;30.50;21.42;;;8.60;68.60;;;;;;2082266;28;20037;-75
2020/12/07 00:04:27;;;;;;;28.52;21.17;;;8.50;68.00;;;;;;2083535;28;20106;-74
2020/12/07 00:05:29;;;;;;;31.38;21.10;;;8.60;68.10;;;;;;2077212;28;20026;-75
2020/12/07 00:06:29;;;;;;;30.45;20.52;;;8.60;68.10;;;;;;2075981;28;20263;-75
2020/12/07 00:07:30;;;;;;;29.60;20.25;;;8.60;68.20;;;;;;2085038;28;20738;-75
2020/12/07 00:08:30;;;;;;;27.65;19.98;;;8.60;68.20;;;;;;2084869;28;20606;-75
2020/12/07 00:09:31;;;;;;;27.30;19.48;;;8.60;68.20;;;;;;2084134;28;20037;-75
2020/12/07 00:10:31;;;;;;;26.95;19.98;;;8.60;68.20;;;;;;2084886;28;20134;-75
2020/12/07 00:11:33;;;;;;;26.65;19.20;;;8.60;68.20;;;;;;2084985;28;20025;-75
2020/12/07 00:12:35;;;;;;;27.20;19.77;;;8.60;68.10;;;;;;2085091;28;20599;-75
2020/12/07 00:13:35;;;;;;;27.73;19.88;;;8.60;68.10;;;;;;2082676;28;20156;-74
2020/12/07 00:14:36;;;;;;;27.05;19.85;;;8.60;68.10;;;;;;2078832;28;20053;-75
2020/12/07 00:15:36;;;;;;;28.83;20.38;;;8.60;68.20;;;;;;2084788;28;20064;-74
2020/12/07 00:16:37;;;;;;;29.95;21.73;;;8.60;68.30;;;;;;2085281;28;20044;-75
2020/12/07 00:17:38;;;;;;;31.80;21.43;;;8.60;68.20;;;;;;2084171;28;20040;-74
2020/12/07 00:18:38;;;;;;;29.58;20.42;;;8.60;68.10;;;;;;2077266;28;20522;-75
2020/12/07 00:19:39;;;;;;;29.85;21.35;;;8.60;68.20;;;;;;2076278;28;20138;-75
2020/12/07 00:20:39;;;;;;;30.75;20.90;;;8.60;68.20;;;;;;2084701;28;20064;-75
2020/12/07 00:21:43;;;;;;;30.20;21.77;;;8.60;68.20;;;;;;2085782;28;20029;-75
2020/12/07 00:22:43;;;;;;;29.30;21.05;;;8.60;68.10;;;;;;2085262;28;20034;-74
2020/12/07 00:23:44;;;;;;;30.25;21.55;;;8.60;68.10;;;;;;2085142;28;20057;-75
2020/12/07 00:24:45;;;;;;;29.55;20.92;;;8.60;68.10;;;;;;2085466;28;20033;-76
2020/12/07 00:25:45;;;;;;;32.60;21.70;;;8.60;68.10;;;;;;2076156;28;20088;-75
2020/12/07 00:26:46;;;;;;;28.25;21.05;;;8.60;68.10;;;;;;2072560;28;20018;-75
2020/12/07 00:27:46;;;;;;;25.85;20.52;;;8.60;68.20;;;;;;2081580;28;20188;-75
2020/12/07 00:28:47;;;;;;;28.10;20.63;;;8.60;68.10;;;;;;2084498;28;20028;-75
2020/12/07 00:29:48;;;;;;;26.67;19.98;;;8.60;68.20;;;;;;2083851;28;20030;-75
2020/12/07 00:30:48;;;;;;;29.13;20.17;;;8.60;68.10;;;;;;2083898;28;20102;-75
2020/12/07 00:31:49;;;;;;;27.88;20.42;;;8.60;68.00;;;;;;2084089;28;20017;-75
2020/12/07 00:32:49;;;;;;;27.05;19.67;;;8.60;68.00;;;;;;2084452;28;20052;-75
2020/12/07 00:33:50;;;;;;;26.67;19.63;;;8.60;68.00;;;;;;2085705;28;20041;-76
2020/12/07 00:34:52;;;;;;;27.90;20.13;;;8.60;68.00;;;;;;2085424;28;20037;-75
2020/12/07 00:35:52;;;;;;;25.60;18.63;;;8.60;68.00;;;;;;2085566;28;20026;-75
2020/12/07 00:36:53;;;;;;;26.98;19.17;;;8.60;68.00;;;;;;2084433;28;20025;-75
2020/12/07 00:37:54;;;;;;;28.13;19.45;;;8.60;68.00;;;;;;2085453;28;21920;-75
2020/12/07 00:38:54;;;;;;;27.00;19.85;;;8.60;68.20;;;;;;2076432;28;20038;-75
2020/12/07 00:39:55;;;;;;;27.02;19.42;;;8.50;68.10;;;;;;2076859;28;20029;-75
2020/12/07 00:40:55;;;;;;;28.30;18.98;;;8.50;68.10;;;;;;2084662;28;20032;-76
2020/12/07 00:41:59;;;;;;;27.50;20.08;;;8.50;68.10;;;;;;2085009;28;20017;-73
2020/12/07 00:42:59;;;;;;;28.13;19.90;;;8.50;68.00;;;;;;2085188;28;20564;-76
2020/12/07 00:44:00;;;;;;;26.17;18.55;;;8.50;68.00;;;;;;2085053;28;20101;-75
2020/12/07 00:45:00;;;;;;;25.40;18.98;;;8.50;67.90;;;;;;2085051;28;20029;-75
2020/12/07 00:46:01;;;;;;;25.10;18.52;;;8.50;68.00;;;;;;2083647;28;20262;-75
2020/12/07 00:47:02;;;;;;;24.75;19.13;;;8.50;68.10;;;;;;2085065;28;20029;-75
2020/12/07 00:48:02;;;;;;;23.70;18.48;;;8.50;68.00;;;;;;2076130;28;20037;-75
2020/12/07 00:49:03;;;;;;;24.25;17.70;;;8.50;68.00;;;;;;2069275;28;20476;-76
2020/12/07 00:50:04;;;;;;;23.38;18.10;;;8.50;68.00;;;;;;2079772;28;20368;-75
2020/12/07 00:51:04;;;;;;;26.92;19.77;;;8.50;68.00;;;;;;2083704;28;20467;-75
2020/12/07 00:52:06;;;;;;;25.85;19.05;;;8.50;68.10;;;;;;2085009;28;20025;-75
2020/12/07 00:53:07;;;;;;;24.45;18.42;;;8.40;68.10;;;;;;2085006;28;20422;-75
2020/12/07 00:54:08;;;;;;;25.73;18.88;;;8.50;68.20;;;;;;2085023;28;20029;-75
2020/12/07 00:55:08;;;;;;;24.27;17.95;;;8.40;68.30;;;;;;2076545;28;20025;-75
2020/12/07 00:56:12;;;;;;;22.88;17.50;;;8.50;68.40;;;;;;2071602;28;20030;-75
2020/12/07 00:57:13;;;;;;;25.48;18.77;;;8.50;68.60;;;;;;2077204;28;20044;-75
2020/12/07 00:58:13;;;;;;;25.83;19.45;;;8.40;68.50;;;;;;2085514;28;20060;-75
2020/12/07 00:59:14;;;;;;;23.15;18.05;;;8.40;68.50;;;;;;2083709;28;20037;-75
2020/12/07 01:00:15;;;;;;;25.45;19.15;;;8.40;68.50;;;;;;2084792;28;20053;-75
2020/12/07 01:01:15;;;;;;;25.27;18.75;;;8.40;68.50;;;;;;2084132;28;20032;-73
2020/12/07 01:02:16;;;;;;;24.10;18.67;;;8.50;68.60;;;;;;2084792;28;20053;-76
2020/12/07 01:03:16;;;;;;;25.23;19.27;;;8.40;68.50;;;;;;2075584;28;20079;-76
2020/12/07 01:04:17;;;;;;;24.35;18.50;;;8.40;68.50;;;;;;2084287;28;20033;-75
2020/12/07 01:05:18;;;;;;;26.63;19.50;;;8.50;68.60;;;;;;2082802;28;20025;-75
2020/12/07 01:06:18;;;;;;;24.58;18.40;;;8.50;68.50;;;;;;2083664;28;20059;-75
2020/12/07 01:07:19;;;;;;;22.65;18.08;;;8.40;68.40;;;;;;2084699;28;20519;-75
2020/12/07 01:08:21;;;;;;;22.50;17.90;;;8.50;68.50;;;;;;2084190;28;20380;-75
2020/12/07 01:09:22;;;;;;;24.88;17.30;;;8.40;68.30;;;;;;2084431;28;20497;-75
2020/12/07 01:10:22;;;;;;;27.20;18.98;;;8.50;68.40;;;;;;2084469;28;20347;-75
2020/12/07 01:11:23;;;;;;;21.27;17.75;;;8.40;68.30;;;;;;2084392;28;20376;-75
2020/12/07 01:12:24;;;;;;;24.67;18.30;;;8.40;68.30;;;;;;2084491;28;20032;-75
2020/12/07 01:13:24;;;;;;;22.90;17.55;;;8.40;68.40;;;;;;2084231;28;20033;-75
2020/12/07 01:14:25;;;;;;;24.77;18.15;;;8.40;68.30;;;;;;2084923;28;20459;-75
2020/12/07 01:15:26;;;;;;;25.55;17.85;;;8.40;68.30;;;;;;2083720;28;20157;-75
2020/12/07 01:16:26;;;;;;;24.10;18.05;;;8.50;68.40;;;;;;2083986;28;20033;-75
2020/12/07 01:17:27;;;;;;;21.27;16.33;;;8.40;68.30;;;;;;2075143;28;20038;-75
2020/12/07 01:18:27;;;;;;;22.20;17.27;;;8.40;68.50;;;;;;2076067;28;20036;-75
2020/12/07 01:19:28;;;;;;;22.45;17.40;;;8.40;68.40;;;;;;2083999;28;20030;-75
2020/12/07 01:20:28;;;;;;;22.00;17.77;;;8.40;68.50;;;;;;2085257;28;20022;-75
2020/12/07 01:21:29;;;;;;;22.77;17.48;;;8.40;68.40;;;;;;2084349;28;20029;-75
2020/12/07 01:22:29;;;;;;;21.63;17.05;;;8.40;68.40;;;;;;2084787;28;20033;-75
2020/12/07 01:23:30;;;;;;;20.98;15.52;;;8.40;68.40;;;;;;2076113;28;20029;-75
2020/12/07 01:24:30;;;;;;;21.95;16.25;;;8.40;68.30;;;;;;2076040;28;20045;-76
2020/12/07 01:25:31;;;;;;;20.27;16.27;;;8.40;68.30;;;;;;2084342;28;20032;-75
2020/12/07 01:26:32;;;;;;;19.98;16.13;;;8.40;68.30;;;;;;2084841;28;20021;-75
2020/12/07 01:27:32;;;;;;;18.23;15.35;;;8.40;68.20;;;;;;2083014;28;20329;-75
2020/12/07 01:28:33;;;;;;;19.98;15.77;;;8.40;68.20;;;;;;2083972;28;20418;-75
2020/12/07 01:29:34;;;;;;;18.80;15.43;;;8.40;68.20;;;;;;2082765;28;20087;-75
2020/12/07 01:30:35;;;;;;;19.42;15.50;;;8.40;68.30;;;;;;2078296;28;20026;-76
2020/12/07 01:31:35;;;;;;;19.63;15.05;;;8.40;68.30;;;;;;2078637;28;20035;-75
2020/12/07 01:32:36;;;;;;;18.55;15.55;;;8.40;68.30;;;;;;2083501;28;20028;-75
2020/12/07 01:33:37;;;;;;;17.42;14.65;;;8.40;68.40;;;;;;2083734;28;20530;-76
2020/12/07 01:34:37;;;;;;;19.40;14.95;;;8.40;68.40;;;;;;2083813;28;20044;-75
2020/12/07 01:35:41;;;;;;;19.15;14.82;;;8.40;68.40;;;;;;2083932;28;20021;-75
2020/12/07 01:36:42;;;;;;;18.55;15.30;;;8.40;68.40;;;;;;2083777;28;20048;-75
2020/12/07 01:37:42;;;;;;;20.63;15.50;;;8.40;68.40;;;;;;2074783;28;20030;-75
2020/12/07 01:38:43;;;;;;;20.77;15.65;;;8.40;68.50;;;;;;2075530;28;20068;-75
2020/12/07 01:39:44;;;;;;;17.63;15.73;;;8.40;68.50;;;;;;2075319;28;20029;-75
2020/12/07 01:40:44;;;;;;;19.90;15.63;;;8.40;68.40;;;;;;2075329;28;20036;-76
2020/12/07 01:41:45;;;;;;;20.45;15.13;;;8.40;68.50;;;;;;2084274;28;20040;-75
2020/12/07 01:42:45;;;;;;;20.85;16.23;;;8.40;68.50;;;;;;2082929;28;20041;-75
2020/12/07 01:43:46;;;;;;;18.75;14.98;;;8.40;68.50;;;;;;2082722;28;20032;-75
2020/12/07 01:44:47;;;;;;;19.17;15.77;;;8.40;68.50;;;;;;2084114;28;20029;-75
2020/12/07 01:45:47;;;;;;;21.67;15.65;;;8.40;68.40;;;;;;2083553;28;20210;-75
2020/12/07 01:46:48;;;;;;;18.42;15.93;;;8.40;68.40;;;;;;2083704;28;20337;-75
2020/12/07 01:47:48;;;;;;;17.42;14.38;;;8.40;68.40;;;;;;2084155;28;20028;-75
2020/12/07 01:48:51;;;;;;;18.58;15.23;;;8.40;68.40;;;;;;2084113;28;20052;-75
2020/12/07 01:49:52;;;;;;;18.80;15.57;;;8.40;68.30;;;;;;2083342;28;20066;-75
2020/12/07 01:50:53;;;;;;;20.27;16.05;;;8.40;68.30;;;;;;2084037;28;20619;-75
2020/12/07 01:51:55;;;;;;;18.40;15.43;;;8.40;68.30;;;;;;2083921;28;20427;-75
2020/12/07 01:52:55;;;;;;;20.15;16.40;;;8.40;68.30;;;;;;2083678;28;20025;-75
2020/12/07 01:53:56;;;;;;;19.65;15.32;;;8.40;68.30;;;;;;2084761;28;20212;-75
2020/12/07 01:54:57;;;;;;;18.85;15.52;;;8.40;68.30;;;;;;2084145;28;20141;-74
2020/12/07 01:55:57;;;;;;;19.75;16.40;;;8.40;68.40;;;;;;2074817;28;20348;-76
2020/12/07 01:56:59;;;;;;;20.33;16.30;;;8.40;68.50;;;;;;2074835;28;20034;-75
2020/12/07 01:57:59;;;;;;;18.88;15.95;;;8.40;68.50;;;;;;2083801;28;20588;-75
2020/12/07 01:59:00;;;;;;;19.90;16.17;;;8.40;68.50;;;;;;2083331;28;20063;-75
2020/12/07 02:00:04;;;;;;;22.80;17.33;;;8.40;68.50;;;;;;2084232;28;20025;-76
2020/12/07 02:01:05;;;;;;;21.50;17.05;;;8.40;68.50;;;;;;2083157;28;20416;-76
2020/12/07 02:02:05;;;;;;;21.92;17.90;;;8.40;68.50;;;;;;2075843;28;20026;-75
2020/12/07 02:03:06;;;;;;;23.17;17.85;;;8.40;68.50;;;;;;2075405;28;20052;-75
2020/12/07 02:04:06;;;;;;;22.30;18.30;;;8.40;68.50;;;;;;2067138;28;20100;-75
2020/12/07 02:05:07;;;;;;;22.20;17.27;;;8.40;68.40;;;;;;2064113;28;20014;-76
2020/12/07 02:06:08;;;;;;;22.40;17.98;;;8.30;68.30;;;;;;2075759;28;20029;-76
2020/12/07 02:07:17;;;;;;;21.73;17.50;;;8.40;68.40;;;;;;2067818;28;20010;-75
2020/12/07 02:08:19;;;;;;;22.40;17.73;;;8.40;68.40;;;;;;2075712;28;20045;-75
2020/12/07 02:09:29;;;;;;;20.98;17.67;;;8.40;68.30;;;;;;2066989;28;20083;-75
2020/12/07 02:10:29;;;;;;;22.10;17.67;;;8.40;68.40;;;;;;2071158;28;20037;-75
2020/12/07 02:11:30;;;;;;;22.92;18.40;;;8.40;68.40;;;;;;2076152;28;20337;-76
2020/12/07 02:12:30;;;;;;;23.70;18.27;;;8.40;68.40;;;;;;2075505;28;20458;-76
2020/12/07 02:13:31;;;;;;;24.45;18.63;;;8.40;68.30;;;;;;2075092;28;20037;-75
2020/12/07 02:14:31;;;;;;;23.25;18.85;;;8.40;68.40;;;;;;2075995;28;20363;-76
2020/12/07 02:15:32;;;;;;;25.10;19.33;;;8.40;68.40;;;;;;2084066;28;20437;-76
2020/12/07 02:16:33;;;;;;;24.42;19.02;;;8.40;68.30;;;;;;2073513;28;20065;-73
2020/12/07 02:17:33;;;;;;;25.70;19.48;;;8.40;68.30;;;;;;2075067;28;20121;-75
2020/12/07 02:18:34;;;;;;;24.08;18.58;;;8.40;68.30;;;;;;2083326;28;20355;-76
2020/12/07 02:19:34;;;;;;;26.13;19.85;;;8.40;68.30;;;;;;2084016;28;20571;-75
2020/12/07 02:20:35;;;;;;;26.38;19.45;;;8.40;68.30;;;;;;2068992;28;20477;-76
2020/12/07 02:21:36;;;;;;;22.98;18.70;;;8.40;68.30;;;;;;2069626;28;20033;-75
2020/12/07 02:22:36;;;;;;;23.30;17.98;;;8.40;68.30;;;;;;2075515;28;20042;-76
2020/12/07 02:23:37;;;;;;;23.65;18.58;;;8.40;68.30;;;;;;2074563;28;20026;-76
2020/12/07 02:24:37;;;;;;;25.58;19.55;;;8.40;68.30;;;;;;2083891;28;20102;-75
2020/12/07 02:25:38;;;;;;;25.25;19.25;;;8.40;68.30;;;;;;2078364;28;20030;-76
2020/12/07 02:26:38;;;;;;;27.98;19.23;;;8.40;68.30;;;;;;2078131;28;20352;-75
2020/12/07 02:27:39;;;;;;;26.30;20.23;;;8.40;68.30;;;;;;2083704;28;20448;-75
2020/12/07 02:28:39;;;;;;;28.10;20.10;;;8.40;68.40;;;;;;2082377;28;20550;-75
2020/12/07 02:29:40;;;;;;;23.20;18.95;;;8.40;68.40;;;;;;2083168;28;20060;-75
2020/12/07 02:30:41;;;;;;;26.35;19.83;;;8.40;68.40;;;;;;2083253;28;20053;-76
2020/12/07 02:31:41;;;;;;;27.35;19.63;;;8.40;68.30;;;;;;2083489;28;20039;-75
2020/12/07 02:32:43;;;;;;;28.20;20.40;;;8.40;68.30;;;;;;2078990;28;20518;-76
2020/12/07 02:33:44;;;;;;;26.42;20.50;;;8.40;68.40;;;;;;2078547;28;20151;-75
2020/12/07 02:34:44;;;;;;;25.95;20.05;;;8.40;68.40;;;;;;2084419;28;20095;-76
2020/12/07 02:35:45;;;;;;;25.05;19.25;;;8.40;68.40;;;;;;2082686;28;20035;-75
2020/12/07 02:36:45;;;;;;;28.40;19.75;;;8.40;68.40;;;;;;2082299;28;20056;-75
2020/12/07 02:37:47;;;;;;;27.55;19.92;;;8.40;68.50;;;;;;2082189;28;20030;-75
2020/12/07 02:38:48;;;;;;;26.33;19.70;;;8.40;68.50;;;;;;2083558;28;20041;-76
2020/12/07 02:39:48;;;;;;;25.42;19.42;;;8.40;68.30;;;;;;2074587;28;20337;-75
2020/12/07 02:40:49;;;;;;;26.00;20.30;;;8.40;68.30;;;;;;2075438;28;20044;-74
2020/12/07 02:41:49;;;;;;;29.10;20.85;;;8.40;68.10;;;;;;2084069;28;20431;-74
2020/12/07 02:42:50;;;;;;;26.60;19.88;;;8.40;68.20;;;;;;2083070;28;20040;-73
2020/12/07 02:43:51;;;;;;;26.50;19.75;;;8.40;68.10;;;;;;2075152;28;20025;-73
2020/12/07 02:44:51;;;;;;;27.30;20.02;;;8.40;68.10;;;;;;2075999;28;20033;-73
2020/12/07 02:45:52;;;;;;;28.33;21.13;;;8.40;68.10;;;;;;2083681;28;20108;-74
2020/12/07 02:46:52;;;;;;;30.75;21.25;;;8.40;68.10;;;;;;2083679;28;20029;-74
2020/12/07 02:47:53;;;;;;;27.27;19.80;;;8.40;68.10;;;;;;2074884;28;20140;-74
2020/12/07 02:48:53;;;;;;;26.27;20.00;;;8.30;68.10;;;;;;2074183;28;20029;-74
2020/12/07 02:49:57;;;;;;;28.17;21.50;;;8.30;68.10;;;;;;2083683;28;20024;-74
2020/12/07 02:50:57;;;;;;;29.15;20.50;;;8.30;68.00;;;;;;2083610;28;20017;-73
2020/12/07 02:51:58;;;;;;;29.02;21.10;;;8.30;68.00;;;;;;2083329;28;20164;-75
2020/12/07 02:52:58;;;;;;;28.83;20.77;;;8.30;67.90;;;;;;2083188;28;20022;-74
2020/12/07 02:53:59;;;;;;;27.88;19.48;;;8.30;67.90;;;;;;2084015;28;20185;-76
2020/12/07 02:55:02;;;;;;;30.40;21.33;;;8.30;68.00;;;;;;2083294;28;20403;-76
2020/12/07 02:56:03;;;;;;;30.73;21.05;;;8.30;68.10;;;;;;2084021;28;20060;-76
2020/12/07 02:57:04;;;;;;;28.65;20.85;;;8.30;68.00;;;;;;2074879;28;20017;-75
2020/12/07 02:58:04;;;;;;;26.05;19.42;;;8.30;68.00;;;;;;2066049;28;20034;-75
2020/12/07 02:59:05;;;;;;;30.00;20.83;;;8.30;67.90;;;;;;2073453;28;20439;-75
2020/12/07 03:00:07;;;;;;;26.92;19.60;;;8.20;67.90;;;;;;2083870;28;20460;-75
2020/12/07 03:01:07;;;;;;;30.50;20.75;;;8.20;68.00;;;;;;2083335;28;20166;-75
2020/12/07 03:02:08;;;;;;;30.17;20.73;;;8.20;68.00;;;;;;2083729;28;20025;-75
2020/12/07 03:03:09;;;;;;;29.65;20.50;;;8.20;67.90;;;;;;2083593;28;20091;-76
2020/12/07 03:04:09;;;;;;;27.75;20.27;;;8.20;67.90;;;;;;2083996;28;20025;-75
2020/12/07 03:05:10;;;;;;;26.13;19.65;;;8.20;67.90;;;;;;2083317;28;20033;-75
2020/12/07 03:06:10;;;;;;;28.00;20.48;;;8.20;67.90;;;;;;2074102;28;20036;-75
2020/12/07 03:07:11;;;;;;;27.73;19.90;;;8.20;67.90;;;;;;2073771;28;20492;-75
2020/12/07 03:08:12;;;;;;;25.30;19.48;;;8.20;67.90;;;;;;2083973;28;20034;-75
2020/12/07 03:09:12;;;;;;;26.05;19.98;;;8.20;67.90;;;;;;2074812;28;20032;-75
2020/12/07 03:10:13;;;;;;;28.77;20.23;;;8.20;68.00;;;;;;2075635;28;20034;-75
2020/12/07 03:11:13;;;;;;;26.80;19.83;;;8.10;68.00;;;;;;2083247;28;20040;-75
2020/12/07 03:12:14;;;;;;;26.55;19.17;;;8.20;68.10;;;;;;2084073;28;20112;-75
2020/12/07 03:13:14;;;;;;;27.75;20.15;;;8.10;68.10;;;;;;2084183;28;20043;-75
2020/12/07 03:14:17;;;;;;;27.05;20.08;;;8.10;68.10;;;;;;2083595;28;20034;-75
2020/12/07 03:15:17;;;;;;;26.42;19.67;;;8.10;68.20;;;;;;2083863;28;20120;-75
2020/12/07 03:16:18;;;;;;;28.10;20.42;;;8.10;68.20;;;;;;2082688;28;20667;-75
2020/12/07 03:17:18;;;;;;;27.83;18.40;;;8.10;68.20;;;;;;2083460;28;20382;-75
2020/12/07 03:18:19;;;;;;;27.00;18.45;;;8.10;68.20;;;;;;2083574;28;20068;-75
2020/12/07 03:19:19;;;;;;;29.15;19.67;;;8.10;68.10;;;;;;2082866;28;20017;-75
2020/12/07 03:20:20;;;;;;;26.73;19.95;;;8.10;68.10;;;;;;2083711;28;20083;-75
2020/12/07 03:21:20;;;;;;;23.10;18.80;;;8.10;68.10;;;;;;2083525;28;20371;-76
2020/12/07 03:22:21;;;;;;;26.45;19.48;;;8.10;68.00;;;;;;2083249;28;20464;-75
2020/12/07 03:23:22;;;;;;;26.25;19.05;;;8.10;68.00;;;;;;2084043;28;20057;-76
2020/12/07 03:24:22;;;;;;;27.55;19.85;;;8.10;68.00;;;;;;2074592;28;20041;-76
2020/12/07 03:25:23;;;;;;;26.38;19.27;;;8.10;68.00;;;;;;2066956;28;20376;-75
2020/12/07 03:26:23;;;;;;;29.35;21.08;;;8.00;68.00;;;;;;2074419;28;20519;-76
2020/12/07 03:27:24;;;;;;;31.48;19.98;;;8.00;68.10;;;;;;2082852;28;20399;-75
2020/12/07 03:28:24;;;;;;;28.23;20.92;;;8.00;68.10;;;;;;2073706;28;20021;-75
2020/12/07 03:29:25;;;;;;;31.48;20.25;;;8.00;68.10;;;;;;2074764;28;20025;-75
2020/12/07 03:30:25;;;;;;;25.73;19.10;;;8.00;68.10;;;;;;2083426;28;20104;-75
2020/12/07 03:31:26;;;;;;;26.42;19.75;;;8.00;68.10;;;;;;2082965;28;20035;-75
2020/12/07 03:32:26;;;;;;;26.75;19.83;;;8.00;68.10;;;;;;2083279;28;20033;-75
2020/12/07 03:33:27;;;;;;;27.23;19.52;;;8.00;68.20;;;;;;2083786;28;20036;-75
2020/12/07 03:34:27;;;;;;;28.30;19.80;;;8.00;68.20;;;;;;2074947;28;20103;-75
2020/12/07 03:35:28;;;;;;;25.60;19.52;;;8.00;68.30;;;;;;2074854;28;20040;-76
2020/12/07 03:36:29;;;;;;;28.90;19.88;;;8.00;68.40;;;;;;2083830;28;20026;-75
2020/12/07 03:37:29;;;;;;;26.60;20.23;;;8.00;68.40;;;;;;2075490;28;20025;-75
2020/12/07 03:38:30;;;;;;;24.60;18.85;;;8.00;68.30;;;;;;2066122;28;20150;-75
2020/12/07 03:39:30;;;;;;;27.75;20.02;;;8.00;68.30;;;;;;2075510;28;20029;-75
2020/12/07 03:40:34;;;;;;;28.75;19.70;;;8.00;68.40;;;;;;2083811;28;20025;-75
2020/12/07 03:41:35;;;;;;;27.00;19.30;;;8.00;68.40;;;;;;2083348;28;20031;-75
2020/12/07 03:42:35;;;;;;;27.45;18.45;;;8.00;68.30;;;;;;2083652;28;20028;-75
2020/12/07 03:43:36;;;;;;;27.70;20.27;;;8.00;68.30;;;;;;2082556;28;20019;-76
2020/12/07 03:44:36;;;;;;;25.80;19.85;;;8.00;68.40;;;;;;2083395;28;20036;-75
2020/12/07 03:45:37;;;;;;;26.10;19.48;;;8.00;68.40;;;;;;2075134;28;20045;-75
2020/12/07 03:46:37;;;;;;;26.27;19.45;;;8.00;68.30;;;;;;2074170;28;20029;-75
2020/12/07 03:47:38;;;;;;;26.42;19.67;;;8.00;68.30;;;;;;2083615;28;20086;-75
2020/12/07 03:48:39;;;;;;;26.15;19.30;;;8.00;68.40;;;;;;2083217;28;20363;-76
2020/12/07 03:49:39;;;;;;;27.45;19.55;;;8.00;68.50;;;;;;2074202;28;20148;-75
2020/12/07 03:50:40;;;;;;;27.33;19.75;;;8.00;68.50;;;;;;2074522;28;20033;-75
2020/12/07 03:51:40;;;;;;;27.73;20.55;;;8.00;68.60;;;;;;2083610;28;20095;-75
2020/12/07 03:52:41;;;;;;;28.38;21.13;;;8.00;68.60;;;;;;2083805;28;20049;-75
2020/12/07 03:53:42;;;;;;;26.60;19.55;;;8.00;68.60;;;;;;2074676;28;20026;-76
2020/12/07 03:54:43;;;;;;;28.20;20.35;;;8.00;68.60;;;;;;2074449;28;20039;-75
2020/12/07 03:55:43;;;;;;;27.30;20.48;;;7.90;69.20;;;;;;2083288;28;20029;-75
2020/12/07 03:56:44;;;;;;;28.60;19.23;;;7.90;68.50;;;;;;2075088;28;20056;-76
2020/12/07 03:57:44;;;;;;;30.88;20.92;;;7.90;68.50;;;;;;2070185;28;20026;-76
2020/12/07 03:58:45;;;;;;;28.63;20.15;;;8.00;68.60;;;;;;2074792;28;20419;-75
2020/12/07 03:59:45;;;;;;;27.48;19.70;;;8.00;68.50;;;;;;2074251;28;20450;-75
2020/12/07 04:00:46;;;;;;;25.17;19.20;;;8.00;68.50;;;;;;2066424;28;20018;-75
2020/12/07 04:01:48;;;;;;;29.80;21.02;;;7.90;68.40;;;;;;2074124;28;20033;-76
2020/12/07 04:02:48;;;;;;;28.90;20.73;;;7.90;68.30;;;;;;2081640;28;20068;-75
2020/12/07 04:03:55;;;;;;;26.98;20.17;;;8.00;68.40;;;;;;2083248;28;20033;-75
2020/12/07 04:05:03;;;;;;;26.67;20.35;;;7.90;68.40;;;;;;2084036;28;20347;-76
2020/12/07 04:06:09;;;;;;;26.98;19.95;;;7.90;68.40;;;;;;2083772;28;20359;-76
2020/12/07 04:07:10;;;;;;;28.08;19.60;;;7.90;68.40;;;;;;2077807;28;20034;-76
2020/12/07 04:08:11;;;;;;;28.60;20.77;;;7.90;68.50;;;;;;2079072;28;20051;-75
2020/12/07 04:09:11;;;;;;;27.08;19.83;;;8.00;68.60;;;;;;2076632;28;20383;-75
2020/12/07 04:10:13;;;;;;;26.13;20.15;;;7.90;68.60;;;;;;2078143;28;20029;-76
2020/12/07 04:11:13;;;;;;;30.30;21.08;;;7.90;68.60;;;;;;2078312;28;20489;-76
2020/12/07 04:12:14;;;;;;;29.58;20.80;;;7.90;68.60;;;;;;2077706;28;20107;-75
2020/12/07 04:13:14;;;;;;;28.55;21.08;;;7.90;68.60;;;;;;2078330;28;20036;-76
2020/12/07 04:14:15;;;;;;;26.42;20.02;;;7.90;68.60;;;;;;2083564;28;20021;-76
2020/12/07 04:15:15;;;;;;;30.30;20.75;;;7.90;68.60;;;;;;2083067;28;20584;-75
2020/12/07 04:16:16;;;;;;;29.25;20.98;;;7.90;68.80;;;;;;2082863;28;20615;-75
2020/12/07 04:17:16;;;;;;;26.30;19.88;;;7.90;68.70;;;;;;2082744;28;20036;-75
2020/12/07 04:18:17;;;;;;;28.80;21.33;;;7.90;68.70;;;;;;2082569;28;20056;-75
2020/12/07 04:19:17;;;;;;;27.67;19.88;;;7.90;68.70;;;;;;2074429;28;20349;-75
2020/12/07 04:20:18;;;;;;;31.30;21.80;;;7.90;68.70;;;;;;2074049;28;20040;-76
2020/12/07 04:21:19;;;;;;;34.15;21.50;;;7.90;68.80;;;;;;2062480;28;20073;-75
2020/12/07 04:22:19;;;;;;;29.40;21.42;;;7.90;68.90;;;;;;2069111;28;20025;-75
2020/12/07 04:23:20;;;;;;;29.52;20.55;;;7.90;69.00;;;;;;2081212;28;20432;-75
2020/12/07 04:24:20;;;;;;;32.08;22.20;;;8.00;69.10;;;;;;2083615;28;20028;-75
2020/12/07 04:25:23;;;;;;;29.23;21.60;;;7.90;68.90;;;;;;2082988;28;20033;-75
2020/12/07 04:26:23;;;;;;;32.45;21.90;;;7.90;68.90;;;;;;2082541;28;20026;-75
2020/12/07 04:27:24;;;;;;;29.38;21.17;;;8.00;68.80;;;;;;2083418;28;20021;-75
2020/12/07 04:28:25;;;;;;;29.80;20.40;;;7.90;68.80;;;;;;2074334;28;20033;-75
2020/12/07 04:29:25;;;;;;;32.72;22.55;;;8.00;68.80;;;;;;2074233;28;20028;-75
2020/12/07 04:30:26;;;;;;;31.13;21.45;;;8.00;68.90;;;;;;2083675;28;20017;-75
2020/12/07 04:31:26;;;;;;;29.50;20.52;;;8.00;68.80;;;;;;2081901;28;20025;-75
2020/12/07 04:32:27;;;;;;;29.40;21.13;;;8.00;68.90;;;;;;2083409;28;20037;-75
2020/12/07 04:33:27;;;;;;;30.13;20.55;;;8.00;68.90;;;;;;2073865;28;20026;-75
2020/12/07 04:34:28;;;;;;;30.25;21.27;;;8.00;69.00;;;;;;2074752;28;20130;-75
2020/12/07 04:35:29;;;;;;;30.10;21.05;;;8.00;69.00;;;;;;2066820;28;20027;-75
2020/12/07 04:36:29;;;;;;;28.77;20.52;;;8.00;68.90;;;;;;2066323;28;20030;-75
2020/12/07 04:37:30;;;;;;;29.13;20.95;;;8.00;68.90;;;;;;2075039;28;20507;-76
2020/12/07 04:38:31;;;;;;;28.38;20.02;;;8.00;68.90;;;;;;2083466;28;20029;-75
2020/12/07 04:39:32;;;;;;;34.10;21.48;;;8.00;68.90;;;;;;2082328;28;20041;-75
2020/12/07 04:40:33;;;;;;;27.50;20.40;;;8.00;68.90;;;;;;2083526;28;20030;-75
2020/12/07 04:41:33;;;;;;;29.52;20.08;;;7.90;68.80;;;;;;2083121;28;20022;-75
2020/12/07 04:42:36;;;;;;;28.83;20.75;;;8.00;68.90;;;;;;2073803;28;20387;-75
2020/12/07 04:43:37;;;;;;;29.60;20.27;;;8.00;68.90;;;;;;2074458;28;20105;-75
2020/12/07 04:44:37;;;;;;;28.25;20.15;;;8.00;68.90;;;;;;2083017;28;20040;-75
2020/12/07 04:45:38;;;;;;;28.45;20.05;;;8.00;69.00;;;;;;2074657;28;20033;-75
2020/12/07 04:46:39;;;;;;;25.85;19.48;;;8.00;69.00;;;;;;2074403;28;20057;-75
2020/12/07 04:47:44;;;;;;;29.52;20.20;;;7.90;68.90;;;;;;2082322;28;20071;-75
2020/12/07 04:48:46;;;;;;;31.27;21.02;;;8.00;68.90;;;;;;2082444;28;20038;-75
2020/12/07 04:49:46;;;;;;;28.33;20.80;;;8.00;68.80;;;;;;2081690;28;20091;-76
2020/12/07 04:50:47;;;;;;;29.85;21.15;;;8.00;68.80;;;;;;2083054;28;20030;-76
2020/12/07 04:51:49;;;;;;;29.15;21.02;;;7.90;68.70;;;;;;2084143;28;20359;-76
2020/12/07 04:52:50;;;;;;;29.02;20.48;;;7.90;68.70;;;;;;2084493;28;20134;-75
2020/12/07 04:53:50;;;;;;;27.48;19.98;;;7.90;68.70;;;;;;2084586;28;20098;-76
2020/12/07 04:54:52;;;;;;;28.52;20.20;;;7.90;68.70;;;;;;2085217;28;20465;-75
2020/12/07 04:55:56;;;;;;;27.67;19.42;;;7.90;68.60;;;;;;2084905;28;20307;-75
2020/12/07 04:56:57;;;;;;;28.63;20.65;;;7.90;68.70;;;;;;2084153;28;20482;-75
2020/12/07 04:57:58;;;;;;;29.67;19.75;;;7.90;68.70;;;;;;2084597;28;20026;-75
2020/12/07 04:59:00;;;;;;;30.88;21.48;;;7.90;69.40;;;;;;2084228;28;20022;-76
2020/12/07 05:00:00;;;;;;;27.70;19.67;;;7.90;68.70;;;;;;2076222;28;20029;-75
2020/12/07 05:01:01;;;;;;;28.63;19.98;;;7.90;68.60;;;;;;2075729;28;20358;-76
2020/12/07 05:02:02;;;;;;;31.92;20.95;;;7.90;68.70;;;;;;2075785;28;20040;-76
2020/12/07 05:03:02;;;;;;;28.05;20.17;;;7.90;68.70;;;;;;2075510;28;20075;-75
2020/12/07 05:04:03;;;;;;;28.42;19.38;;;7.90;68.70;;;;;;2076747;28;20673;-75
2020/12/07 05:05:05;;;;;;;31.17;20.83;;;7.90;68.80;;;;;;2085090;28;20063;-76
2020/12/07 05:06:06;;;;;;;30.77;21.00;;;7.90;68.80;;;;;;2084766;28;20144;-75
2020/12/07 05:07:10;;;;;;;32.33;21.80;;;7.90;68.80;;;;;;2085485;28;20044;-75
2020/12/07 05:08:11;;;;;;;29.85;20.27;;;7.90;68.80;;;;;;2076063;28;20038;-76
2020/12/07 05:09:12;;;;;;;31.55;21.75;;;7.90;68.80;;;;;;2075047;28;20119;-75
2020/12/07 05:10:15;;;;;;;30.58;20.80;;;7.80;68.70;;;;;;2085301;28;20685;-76
2020/12/07 05:11:15;;;;;;;32.55;21.23;;;7.90;68.90;;;;;;2084446;28;20044;-75
2020/12/07 05:12:22;;;;;;;30.10;21.40;;;7.90;69.00;;;;;;2085389;28;20029;-75